sensor_id;sensor_type;location;lat;lon;timestamp;P1;durP1;ratioP1;P2;durP2;ratioP2
72115;SDS011;59991;52.140;5.428;2023-10-31T00:00:17;3.22;;;1.65;;
72115;SDS011;59991;52.140;5.428;2023-10-31T00:00:49;3.08;;;1.45;;
72115;SDS011;59991;52.140;5.428;2023-10-31T00:01:21;4.13;;;1.30;;
72115;SDS011;59991;52.140;5.428;2023-10-31T00:01:53;3.40;;;1.13;;
72115;SDS011;59991;52.140;5.428;2023-10-31T00:02:26;2.63;;;1.20;;
72115;SDS011;59991;52.140;5.428;2023-10-31T00:02:58;5.18;;;1.30;;
72115;SDS011;59991;52.140;5.428;2023-10-31T00:03:30;4.32;;;1.40;;
72115;SDS011;59991;52.140;5.428;2023-10-31T00:04:02;8.03;;;1.43;;
72115;SDS011;59991;52.140;5.428;2023-10-31T00:04:33;3.70;;;1.00;;
72115;SDS011;59991;52.140;5.428;2023-10-31T00:05:05;2.38;;;1.50;;
72115;SDS011;59991;52.140;5.428;2023-10-31T00:05:37;3.08;;;1.42;;
72115;SDS011;59991;52.140;5.428;2023-10-31T00:06:09;2.40;;;1.55;;
72115;SDS011;59991;52.140;5.428;2023-10-31T00:06:41;2.53;;;1.60;;
72115;SDS011;59991;52.140;5.428;2023-10-31T00:07:12;2.25;;;1.23;;
72115;SDS011;59991;52.140;5.428;2023-10-31T00:07:44;2.97;;;1.48;;
72115;SDS011;59991;52.140;5.428;2023-10-31T00:08:15;2.80;;;1.20;;
72115;SDS011;59991;52.140;5.428;2023-10-31T00:08:47;2.30;;;1.25;;
72115;SDS011;59991;52.140;5.428;2023-10-31T00:09:18;5.50;;;1.20;;
72115;SDS011;59991;52.140;5.428;2023-10-31T00:09:50;4.10;;;1.08;;
72115;SDS011;59991;52.140;5.428;2023-10-31T00:10:21;3.97;;;1.40;;
72115;SDS011;59991;52.140;5.428;2023-10-31T00:10:53;2.10;;;1.55;;
72115;SDS011;59991;52.140;5.428;2023-10-31T00:11:24;4.40;;;1.58;;
72115;SDS011;59991;52.140;5.428;2023-10-31T00:11:56;3.03;;;1.45;;
72115;SDS011;59991;52.140;5.428;2023-10-31T00:12:27;2.83;;;1.40;;
72115;SDS011;59991;52.140;5.428;2023-10-31T00:12:59;4.30;;;1.38;;
72115;SDS011;59991;52.140;5.428;2023-10-31T00:13:30;3.05;;;1.33;;
72115;SDS011;59991;52.140;5.428;2023-10-31T00:14:02;3.38;;;1.23;;
72115;SDS011;59991;52.140;5.428;2023-10-31T00:14:33;1.63;;;1.10;;
72115;SDS011;59991;52.140;5.428;2023-10-31T00:15:05;5.40;;;1.48;;
72115;SDS011;59991;52.140;5.428;2023-10-31T00:15:37;2.90;;;1.20;;
72115;SDS011;59991;52.140;5.428;2023-10-31T00:16:08;1.85;;;0.98;;
72115;SDS011;59991;52.140;5.428;2023-10-31T00:16:40;4.53;;;1.35;;
72115;SDS011;59991;52.140;5.428;2023-10-31T00:17:11;3.83;;;1.58;;
72115;SDS011;59991;52.140;5.428;2023-10-31T00:17:43;5.18;;;1.10;;
72115;SDS011;59991;52.140;5.428;2023-10-31T00:18:14;4.82;;;1.30;;
72115;SDS011;59991;52.140;5.428;2023-10-31T00:18:46;2.33;;;1.40;;
72115;SDS011;59991;52.140;5.428;2023-10-31T00:19:18;3.25;;;0.80;;
72115;SDS011;59991;52.140;5.428;2023-10-31T00:19:49;3.63;;;1.33;;
72115;SDS011;59991;52.140;5.428;2023-10-31T00:20:21;3.78;;;1.50;;
72115;SDS011;59991;52.140;5.428;2023-10-31T00:20:52;1.70;;;0.90;;
72115;SDS011;59991;52.140;5.428;2023-10-31T00:21:24;2.40;;;1.35;;
72115;SDS011;59991;52.140;5.428;2023-10-31T00:21:55;3.13;;;1.80;;
72115;SDS011;59991;52.140;5.428;2023-10-31T00:22:27;2.03;;;1.20;;
72115;SDS011;59991;52.140;5.428;2023-10-31T00:22:59;3.60;;;1.20;;
72115;SDS011;59991;52.140;5.428;2023-10-31T00:23:30;4.80;;;1.55;;
72115;SDS011;59991;52.140;5.428;2023-10-31T00:24:02;3.47;;;1.52;;
72115;SDS011;59991;52.140;5.428;2023-10-31T00:24:34;3.17;;;0.80;;
72115;SDS011;59991;52.140;5.428;2023-10-31T00:25:24;2.40;;;1.10;;
72115;SDS011;59991;52.140;5.428;2023-10-31T00:25:55;4.10;;;1.40;;
72115;SDS011;59991;52.140;5.428;2023-10-31T00:26:27;5.65;;;1.60;;
72115;SDS011;59991;52.140;5.428;2023-10-31T00:26:58;4.32;;;1.20;;
72115;SDS011;59991;52.140;5.428;2023-10-31T00:27:30;7.68;;;1.42;;
72115;SDS011;59991;52.140;5.428;2023-10-31T00:28:01;4.18;;;2.13;;
72115;SDS011;59991;52.140;5.428;2023-10-31T00:28:33;2.42;;;1.30;;
72115;SDS011;59991;52.140;5.428;2023-10-31T00:29:04;4.03;;;1.38;;
72115;SDS011;59991;52.140;5.428;2023-10-31T00:29:36;3.55;;;1.60;;
72115;SDS011;59991;52.140;5.428;2023-10-31T00:30:08;3.17;;;1.13;;
72115;SDS011;59991;52.140;5.428;2023-10-31T00:30:39;5.20;;;1.33;;
72115;SDS011;59991;52.140;5.428;2023-10-31T00:31:11;4.60;;;1.60;;
72115;SDS011;59991;52.140;5.428;2023-10-31T00:31:42;2.95;;;1.40;;
72115;SDS011;59991;52.140;5.428;2023-10-31T00:32:14;4.35;;;1.33;;
72115;SDS011;59991;52.140;5.428;2023-10-31T00:32:45;3.30;;;1.45;;
72115;SDS011;59991;52.140;5.428;2023-10-31T00:33:17;4.25;;;1.00;;
72115;SDS011;59991;52.140;5.428;2023-10-31T00:33:48;6.43;;;1.75;;
72115;SDS011;59991;52.140;5.428;2023-10-31T00:34:20;4.57;;;2.30;;
72115;SDS011;59991;52.140;5.428;2023-10-31T00:34:52;3.13;;;1.77;;
72115;SDS011;59991;52.140;5.428;2023-10-31T00:35:23;7.72;;;1.73;;
72115;SDS011;59991;52.140;5.428;2023-10-31T00:35:55;3.47;;;2.20;;
72115;SDS011;59991;52.140;5.428;2023-10-31T00:36:27;4.70;;;2.20;;
72115;SDS011;59991;52.140;5.428;2023-10-31T00:36:58;5.57;;;2.47;;
72115;SDS011;59991;52.140;5.428;2023-10-31T00:37:30;4.85;;;2.45;;
72115;SDS011;59991;52.140;5.428;2023-10-31T00:38:01;5.70;;;2.53;;
72115;SDS011;59991;52.140;5.428;2023-10-31T00:38:51;4.57;;;1.95;;
72115;SDS011;59991;52.140;5.428;2023-10-31T00:39:23;4.68;;;2.10;;
72115;SDS011;59991;52.140;5.428;2023-10-31T00:39:54;4.32;;;2.78;;
72115;SDS011;59991;52.140;5.428;2023-10-31T00:40:26;4.82;;;2.42;;
72115;SDS011;59991;52.140;5.428;2023-10-31T00:40:57;4.40;;;2.65;;
72115;SDS011;59991;52.140;5.428;2023-10-31T00:41:29;3.30;;;2.53;;
72115;SDS011;59991;52.140;5.428;2023-10-31T00:42:01;6.07;;;2.67;;
72115;SDS011;59991;52.140;5.428;2023-10-31T00:42:32;4.90;;;3.45;;
72115;SDS011;59991;52.140;5.428;2023-10-31T00:43:04;5.80;;;3.50;;
72115;SDS011;59991;52.140;5.428;2023-10-31T00:43:36;7.57;;;3.53;;
72115;SDS011;59991;52.140;5.428;2023-10-31T00:44:07;6.40;;;4.70;;
72115;SDS011;59991;52.140;5.428;2023-10-31T00:44:39;6.75;;;3.90;;
72115;SDS011;59991;52.140;5.428;2023-10-31T00:45:10;6.38;;;4.15;;
72115;SDS011;59991;52.140;5.428;2023-10-31T00:45:42;7.80;;;4.13;;
72115;SDS011;59991;52.140;5.428;2023-10-31T00:46:13;6.30;;;4.50;;
72115;SDS011;59991;52.140;5.428;2023-10-31T00:46:45;6.23;;;3.90;;
72115;SDS011;59991;52.140;5.428;2023-10-31T00:47:16;7.20;;;5.18;;
72115;SDS011;59991;52.140;5.428;2023-10-31T00:47:49;6.72;;;3.90;;
72115;SDS011;59991;52.140;5.428;2023-10-31T00:48:20;6.18;;;4.45;;
72115;SDS011;59991;52.140;5.428;2023-10-31T00:48:52;6.85;;;4.80;;
72115;SDS011;59991;52.140;5.428;2023-10-31T00:49:23;7.00;;;4.63;;
72115;SDS011;59991;52.140;5.428;2023-10-31T00:49:55;5.18;;;4.22;;
72115;SDS011;59991;52.140;5.428;2023-10-31T00:50:27;6.75;;;3.90;;
72115;SDS011;59991;52.140;5.428;2023-10-31T00:51:00;6.38;;;4.47;;
72115;SDS011;59991;52.140;5.428;2023-10-31T00:51:31;5.30;;;4.80;;
72115;SDS011;59991;52.140;5.428;2023-10-31T00:52:03;9.13;;;4.70;;
72115;SDS011;59991;52.140;5.428;2023-10-31T00:52:35;6.18;;;4.47;;
72115;SDS011;59991;52.140;5.428;2023-10-31T00:53:07;7.28;;;4.80;;
72115;SDS011;59991;52.140;5.428;2023-10-31T00:53:39;5.32;;;4.55;;
72115;SDS011;59991;52.140;5.428;2023-10-31T00:54:10;6.63;;;4.70;;
72115;SDS011;59991;52.140;5.428;2023-10-31T00:54:42;7.00;;;4.70;;
72115;SDS011;59991;52.140;5.428;2023-10-31T00:55:13;8.10;;;4.50;;
72115;SDS011;59991;52.140;5.428;2023-10-31T00:55:45;7.18;;;5.03;;
72115;SDS011;59991;52.140;5.428;2023-10-31T00:56:16;5.75;;;5.05;;
72115;SDS011;59991;52.140;5.428;2023-10-31T00:56:48;8.98;;;5.28;;
72115;SDS011;59991;52.140;5.428;2023-10-31T00:57:19;5.40;;;4.83;;
72115;SDS011;59991;52.140;5.428;2023-10-31T00:57:52;10.52;;;5.63;;
72115;SDS011;59991;52.140;5.428;2023-10-31T00:58:23;9.52;;;6.10;;
72115;SDS011;59991;52.140;5.428;2023-10-31T00:58:55;7.57;;;5.10;;
72115;SDS011;59991;52.140;5.428;2023-10-31T00:59:26;7.32;;;6.63;;
72115;SDS011;59991;52.140;5.428;2023-10-31T00:59:58;6.35;;;4.80;;
72115;SDS011;59991;52.140;5.428;2023-10-31T01:00:29;7.60;;;5.63;;
72115;SDS011;59991;52.140;5.428;2023-10-31T01:01:01;8.77;;;6.93;;
72115;SDS011;59991;52.140;5.428;2023-10-31T01:01:32;8.80;;;6.20;;
72115;SDS011;59991;52.140;5.428;2023-10-31T01:02:04;6.45;;;5.47;;
72115;SDS011;59991;52.140;5.428;2023-10-31T01:02:36;9.63;;;5.47;;
72115;SDS011;59991;52.140;5.428;2023-10-31T01:03:08;7.68;;;5.63;;
72115;SDS011;59991;52.140;5.428;2023-10-31T01:03:39;9.10;;;5.75;;
72115;SDS011;59991;52.140;5.428;2023-10-31T01:04:11;9.57;;;6.57;;
72115;SDS011;59991;52.140;5.428;2023-10-31T01:04:42;8.95;;;6.32;;
72115;SDS011;59991;52.140;5.428;2023-10-31T01:05:14;8.68;;;6.00;;
72115;SDS011;59991;52.140;5.428;2023-10-31T01:05:45;6.78;;;6.10;;
72115;SDS011;59991;52.140;5.428;2023-10-31T01:06:17;9.63;;;6.03;;
72115;SDS011;59991;52.140;5.428;2023-10-31T01:06:49;8.55;;;5.43;;
72115;SDS011;59991;52.140;5.428;2023-10-31T01:07:20;7.75;;;6.28;;
72115;SDS011;59991;52.140;5.428;2023-10-31T01:07:51;11.40;;;6.37;;
72115;SDS011;59991;52.140;5.428;2023-10-31T01:08:23;9.35;;;6.10;;
72115;SDS011;59991;52.140;5.428;2023-10-31T01:08:54;7.03;;;5.45;;
72115;SDS011;59991;52.140;5.428;2023-10-31T01:09:26;8.40;;;6.47;;
72115;SDS011;59991;52.140;5.428;2023-10-31T01:09:57;8.98;;;5.95;;
72115;SDS011;59991;52.140;5.428;2023-10-31T01:10:29;8.32;;;6.03;;
72115;SDS011;59991;52.140;5.428;2023-10-31T01:11:00;8.13;;;5.80;;
72115;SDS011;59991;52.140;5.428;2023-10-31T01:11:32;7.38;;;6.50;;
72115;SDS011;59991;52.140;5.428;2023-10-31T01:12:04;6.95;;;6.28;;
72115;SDS011;59991;52.140;5.428;2023-10-31T01:13:26;7.43;;;6.17;;
72115;SDS011;59991;52.140;5.428;2023-10-31T01:13:58;6.63;;;6.00;;
72115;SDS011;59991;52.140;5.428;2023-10-31T01:14:29;8.75;;;5.93;;
72115;SDS011;59991;52.140;5.428;2023-10-31T01:15:01;7.40;;;6.53;;
72115;SDS011;59991;52.140;5.428;2023-10-31T01:15:33;11.45;;;7.32;;
72115;SDS011;59991;52.140;5.428;2023-10-31T01:16:04;8.85;;;6.85;;
72115;SDS011;59991;52.140;5.428;2023-10-31T01:16:36;7.07;;;6.13;;
72115;SDS011;59991;52.140;5.428;2023-10-31T01:17:07;8.15;;;6.38;;
72115;SDS011;59991;52.140;5.428;2023-10-31T01:17:39;9.13;;;6.38;;
72115;SDS011;59991;52.140;5.428;2023-10-31T01:18:10;11.52;;;6.90;;
72115;SDS011;59991;52.140;5.428;2023-10-31T01:18:42;9.03;;;5.63;;
72115;SDS011;59991;52.140;5.428;2023-10-31T01:19:13;10.35;;;6.00;;
72115;SDS011;59991;52.140;5.428;2023-10-31T01:19:45;7.97;;;6.25;;
72115;SDS011;59991;52.140;5.428;2023-10-31T01:20:16;7.30;;;5.88;;
72115;SDS011;59991;52.140;5.428;2023-10-31T01:20:48;6.88;;;6.10;;
72115;SDS011;59991;52.140;5.428;2023-10-31T01:21:20;10.82;;;6.18;;
72115;SDS011;59991;52.140;5.428;2023-10-31T01:21:51;7.00;;;5.78;;
72115;SDS011;59991;52.140;5.428;2023-10-31T01:22:23;8.00;;;6.18;;
72115;SDS011;59991;52.140;5.428;2023-10-31T01:22:54;8.13;;;6.57;;
72115;SDS011;59991;52.140;5.428;2023-10-31T01:23:26;10.63;;;6.10;;
72115;SDS011;59991;52.140;5.428;2023-10-31T01:23:58;8.63;;;6.13;;
72115;SDS011;59991;52.140;5.428;2023-10-31T01:24:30;7.85;;;5.30;;
72115;SDS011;59991;52.140;5.428;2023-10-31T01:25:01;7.68;;;5.07;;
72115;SDS011;59991;52.140;5.428;2023-10-31T01:25:50;8.27;;;5.43;;
72115;SDS011;59991;52.140;5.428;2023-10-31T01:26:22;7.55;;;6.45;;
72115;SDS011;59991;52.140;5.428;2023-10-31T01:26:53;7.70;;;5.65;;
72115;SDS011;59991;52.140;5.428;2023-10-31T01:27:25;13.60;;;6.93;;
72115;SDS011;59991;52.140;5.428;2023-10-31T01:27:56;7.57;;;5.72;;
72115;SDS011;59991;52.140;5.428;2023-10-31T01:28:28;9.18;;;6.28;;
72115;SDS011;59991;52.140;5.428;2023-10-31T01:28:59;8.50;;;5.57;;
72115;SDS011;59991;52.140;5.428;2023-10-31T01:29:31;11.70;;;6.73;;
72115;SDS011;59991;52.140;5.428;2023-10-31T01:30:02;8.43;;;5.95;;
72115;SDS011;59991;52.140;5.428;2023-10-31T01:30:34;9.63;;;6.00;;
72115;SDS011;59991;52.140;5.428;2023-10-31T01:31:06;6.68;;;5.95;;
72115;SDS011;59991;52.140;5.428;2023-10-31T01:31:40;8.50;;;6.03;;
72115;SDS011;59991;52.140;5.428;2023-10-31T01:32:29;9.48;;;5.68;;
72115;SDS011;59991;52.140;5.428;2023-10-31T01:33:01;7.25;;;5.43;;
72115;SDS011;59991;52.140;5.428;2023-10-31T01:33:32;8.77;;;6.50;;
72115;SDS011;59991;52.140;5.428;2023-10-31T01:34:04;7.40;;;5.72;;
72115;SDS011;59991;52.140;5.428;2023-10-31T01:34:36;12.60;;;6.38;;
72115;SDS011;59991;52.140;5.428;2023-10-31T01:35:07;6.97;;;5.30;;
72115;SDS011;59991;52.140;5.428;2023-10-31T01:35:39;8.82;;;5.45;;
72115;SDS011;59991;52.140;5.428;2023-10-31T01:36:11;8.85;;;6.28;;
72115;SDS011;59991;52.140;5.428;2023-10-31T01:36:43;9.90;;;6.10;;
72115;SDS011;59991;52.140;5.428;2023-10-31T01:37:15;10.65;;;6.85;;
72115;SDS011;59991;52.140;5.428;2023-10-31T01:37:46;11.80;;;6.60;;
72115;SDS011;59991;52.140;5.428;2023-10-31T01:38:18;7.65;;;6.15;;
72115;SDS011;59991;52.140;5.428;2023-10-31T01:38:49;6.88;;;6.15;;
72115;SDS011;59991;52.140;5.428;2023-10-31T01:39:21;11.13;;;6.45;;
72115;SDS011;59991;52.140;5.428;2023-10-31T01:39:52;8.80;;;6.35;;
72115;SDS011;59991;52.140;5.428;2023-10-31T01:40:24;8.43;;;5.70;;
72115;SDS011;59991;52.140;5.428;2023-10-31T01:40:55;7.78;;;6.20;;
72115;SDS011;59991;52.140;5.428;2023-10-31T01:41:27;8.35;;;6.07;;
72115;SDS011;59991;52.140;5.428;2023-10-31T01:41:58;9.73;;;6.90;;
72115;SDS011;59991;52.140;5.428;2023-10-31T01:42:30;7.50;;;6.72;;
72115;SDS011;59991;52.140;5.428;2023-10-31T01:43:01;9.52;;;6.03;;
72115;SDS011;59991;52.140;5.428;2023-10-31T01:43:33;12.52;;;6.18;;
72115;SDS011;59991;52.140;5.428;2023-10-31T01:44:07;8.98;;;6.55;;
72115;SDS011;59991;52.140;5.428;2023-10-31T01:44:38;10.02;;;6.10;;
72115;SDS011;59991;52.140;5.428;2023-10-31T01:45:10;8.85;;;5.35;;
72115;SDS011;59991;52.140;5.428;2023-10-31T01:45:42;8.17;;;5.87;;
72115;SDS011;59991;52.140;5.428;2023-10-31T01:46:13;9.20;;;5.97;;
72115;SDS011;59991;52.140;5.428;2023-10-31T01:46:45;5.93;;;5.07;;
72115;SDS011;59991;52.140;5.428;2023-10-31T01:47:17;9.52;;;5.53;;
72115;SDS011;59991;52.140;5.428;2023-10-31T01:47:48;6.45;;;5.53;;
72115;SDS011;59991;52.140;5.428;2023-10-31T01:48:23;8.05;;;5.05;;
72115;SDS011;59991;52.140;5.428;2023-10-31T01:48:56;9.93;;;5.35;;
72115;SDS011;59991;52.140;5.428;2023-10-31T01:49:28;7.57;;;5.50;;
72115;SDS011;59991;52.140;5.428;2023-10-31T01:49:59;13.00;;;7.35;;
72115;SDS011;59991;52.140;5.428;2023-10-31T01:50:31;6.78;;;4.82;;
72115;SDS011;59991;52.140;5.428;2023-10-31T01:51:03;8.03;;;5.27;;
72115;SDS011;59991;52.140;5.428;2023-10-31T01:51:35;6.18;;;5.28;;
72115;SDS011;59991;52.140;5.428;2023-10-31T01:52:07;6.60;;;5.10;;
72115;SDS011;59991;52.140;5.428;2023-10-31T01:52:38;9.32;;;4.95;;
72115;SDS011;59991;52.140;5.428;2023-10-31T01:53:10;7.18;;;5.30;;
72115;SDS011;59991;52.140;5.428;2023-10-31T01:53:41;7.22;;;5.10;;
72115;SDS011;59991;52.140;5.428;2023-10-31T01:54:13;7.13;;;5.50;;
72115;SDS011;59991;52.140;5.428;2023-10-31T01:54:45;8.65;;;5.47;;
72115;SDS011;59991;52.140;5.428;2023-10-31T01:55:17;8.18;;;5.65;;
72115;SDS011;59991;52.140;5.428;2023-10-31T01:55:49;12.23;;;5.53;;
72115;SDS011;59991;52.140;5.428;2023-10-31T01:56:22;8.80;;;5.00;;
72115;SDS011;59991;52.140;5.428;2023-10-31T01:56:55;6.97;;;5.10;;
72115;SDS011;59991;52.140;5.428;2023-10-31T01:57:29;7.18;;;4.97;;
72115;SDS011;59991;52.140;5.428;2023-10-31T01:58:01;7.97;;;5.57;;
72115;SDS011;59991;52.140;5.428;2023-10-31T01:58:36;8.35;;;5.18;;
72115;SDS011;59991;52.140;5.428;2023-10-31T01:59:08;6.22;;;5.32;;
72115;SDS011;59991;52.140;5.428;2023-10-31T01:59:40;8.57;;;5.65;;
72115;SDS011;59991;52.140;5.428;2023-10-31T02:00:12;7.72;;;5.72;;
72115;SDS011;59991;52.140;5.428;2023-10-31T02:00:45;6.63;;;5.55;;
72115;SDS011;59991;52.140;5.428;2023-10-31T02:01:17;6.80;;;6.00;;
72115;SDS011;59991;52.140;5.428;2023-10-31T02:01:49;8.03;;;5.00;;
72115;SDS011;59991;52.140;5.428;2023-10-31T02:02:21;7.93;;;5.28;;
72115;SDS011;59991;52.140;5.428;2023-10-31T02:02:54;9.98;;;5.93;;
72115;SDS011;59991;52.140;5.428;2023-10-31T02:03:27;9.90;;;6.00;;
72115;SDS011;59991;52.140;5.428;2023-10-31T02:03:59;8.30;;;6.38;;
72115;SDS011;59991;52.140;5.428;2023-10-31T02:04:33;7.75;;;5.70;;
72115;SDS011;59991;52.140;5.428;2023-10-31T02:05:05;8.55;;;6.22;;
72115;SDS011;59991;52.140;5.428;2023-10-31T02:05:37;7.97;;;5.60;;
72115;SDS011;59991;52.140;5.428;2023-10-31T02:06:09;11.35;;;5.75;;
72115;SDS011;59991;52.140;5.428;2023-10-31T02:06:40;6.90;;;6.20;;
72115;SDS011;59991;52.140;5.428;2023-10-31T02:07:11;7.10;;;5.77;;
72115;SDS011;59991;52.140;5.428;2023-10-31T02:07:44;7.68;;;5.53;;
72115;SDS011;59991;52.140;5.428;2023-10-31T02:08:34;7.30;;;6.60;;
72115;SDS011;59991;52.140;5.428;2023-10-31T02:09:06;10.25;;;6.30;;
72115;SDS011;59991;52.140;5.428;2023-10-31T02:09:38;11.02;;;6.40;;
72115;SDS011;59991;52.140;5.428;2023-10-31T02:10:09;13.52;;;7.25;;
72115;SDS011;59991;52.140;5.428;2023-10-31T02:10:41;8.68;;;6.82;;
72115;SDS011;59991;52.140;5.428;2023-10-31T02:11:12;7.63;;;6.50;;
72115;SDS011;59991;52.140;5.428;2023-10-31T02:11:44;10.77;;;6.65;;
72115;SDS011;59991;52.140;5.428;2023-10-31T02:12:31;11.18;;;7.65;;
72115;SDS011;59991;52.140;5.428;2023-10-31T02:13:13;6.33;;;5.47;;
72115;SDS011;59991;52.140;5.428;2023-10-31T02:13:46;10.45;;;7.35;;
72115;SDS011;59991;52.140;5.428;2023-10-31T02:14:18;7.25;;;6.22;;
72115;SDS011;59991;52.140;5.428;2023-10-31T02:15:07;7.32;;;6.07;;
72115;SDS011;59991;52.140;5.428;2023-10-31T02:15:39;7.03;;;5.90;;
72115;SDS011;59991;52.140;5.428;2023-10-31T02:16:11;8.00;;;6.28;;
72115;SDS011;59991;52.140;5.428;2023-10-31T02:16:43;6.95;;;6.28;;
72115;SDS011;59991;52.140;5.428;2023-10-31T02:17:14;9.30;;;7.25;;
72115;SDS011;59991;52.140;5.428;2023-10-31T02:17:46;9.57;;;7.00;;
72115;SDS011;59991;52.140;5.428;2023-10-31T02:18:35;11.02;;;6.22;;
72115;SDS011;59991;52.140;5.428;2023-10-31T02:19:25;8.03;;;6.47;;
72115;SDS011;59991;52.140;5.428;2023-10-31T02:19:57;9.93;;;6.43;;
72115;SDS011;59991;52.140;5.428;2023-10-31T02:20:29;12.43;;;6.97;;
72115;SDS011;59991;52.140;5.428;2023-10-31T02:21:00;9.48;;;6.40;;
72115;SDS011;59991;52.140;5.428;2023-10-31T02:21:32;11.70;;;6.80;;
72115;SDS011;59991;52.140;5.428;2023-10-31T02:22:03;9.15;;;6.18;;
72115;SDS011;59991;52.140;5.428;2023-10-31T02:22:35;11.38;;;7.07;;
72115;SDS011;59991;52.140;5.428;2023-10-31T02:23:07;9.70;;;7.07;;
72115;SDS011;59991;52.140;5.428;2023-10-31T02:23:38;8.63;;;6.13;;
72115;SDS011;59991;52.140;5.428;2023-10-31T02:24:10;12.18;;;6.80;;
72115;SDS011;59991;52.140;5.428;2023-10-31T02:24:41;9.73;;;6.97;;
72115;SDS011;59991;52.140;5.428;2023-10-31T02:25:16;8.52;;;6.53;;
72115;SDS011;59991;52.140;5.428;2023-10-31T02:25:49;8.02;;;6.25;;
72115;SDS011;59991;52.140;5.428;2023-10-31T02:26:20;10.10;;;7.07;;
72115;SDS011;59991;52.140;5.428;2023-10-31T02:26:52;10.50;;;6.93;;
72115;SDS011;59991;52.140;5.428;2023-10-31T02:27:24;9.48;;;7.55;;
72115;SDS011;59991;52.140;5.428;2023-10-31T02:27:55;10.88;;;7.60;;
72115;SDS011;59991;52.140;5.428;2023-10-31T02:28:27;8.70;;;7.80;;
72115;SDS011;59991;52.140;5.428;2023-10-31T02:28:59;10.35;;;8.02;;
72115;SDS011;59991;52.140;5.428;2023-10-31T02:29:31;10.95;;;8.18;;
72115;SDS011;59991;52.140;5.428;2023-10-31T02:30:22;13.27;;;9.10;;
72115;SDS011;59991;52.140;5.428;2023-10-31T02:30:54;10.60;;;8.05;;
72115;SDS011;59991;52.140;5.428;2023-10-31T02:31:26;12.68;;;8.55;;
72115;SDS011;59991;52.140;5.428;2023-10-31T02:31:58;10.93;;;8.07;;
72115;SDS011;59991;52.140;5.428;2023-10-31T02:32:29;10.25;;;8.98;;
72115;SDS011;59991;52.140;5.428;2023-10-31T02:33:01;12.55;;;8.43;;
72115;SDS011;59991;52.140;5.428;2023-10-31T02:33:33;12.48;;;7.45;;
72115;SDS011;59991;52.140;5.428;2023-10-31T02:34:05;14.07;;;8.02;;
72115;SDS011;59991;52.140;5.428;2023-10-31T02:34:36;14.02;;;8.38;;
72115;SDS011;59991;52.140;5.428;2023-10-31T02:35:25;14.20;;;7.60;;
72115;SDS011;59991;52.140;5.428;2023-10-31T02:35:57;13.03;;;8.23;;
72115;SDS011;59991;52.140;5.428;2023-10-31T02:36:28;9.30;;;8.40;;
72115;SDS011;59991;52.140;5.428;2023-10-31T02:37:00;16.20;;;8.18;;
72115;SDS011;59991;52.140;5.428;2023-10-31T02:37:31;12.77;;;7.97;;
72115;SDS011;59991;52.140;5.428;2023-10-31T02:38:03;10.82;;;8.45;;
72115;SDS011;59991;52.140;5.428;2023-10-31T02:38:34;10.30;;;8.45;;
72115;SDS011;59991;52.140;5.428;2023-10-31T02:39:06;12.95;;;8.75;;
72115;SDS011;59991;52.140;5.428;2023-10-31T02:39:37;10.10;;;7.85;;
72115;SDS011;59991;52.140;5.428;2023-10-31T02:40:09;11.60;;;8.48;;
72115;SDS011;59991;52.140;5.428;2023-10-31T02:40:41;13.77;;;8.35;;
72115;SDS011;59991;52.140;5.428;2023-10-31T02:41:12;9.00;;;8.10;;
72115;SDS011;59991;52.140;5.428;2023-10-31T02:41:44;10.85;;;8.38;;
72115;SDS011;59991;52.140;5.428;2023-10-31T02:42:15;10.68;;;8.60;;
72115;SDS011;59991;52.140;5.428;2023-10-31T02:42:47;12.13;;;8.68;;
72115;SDS011;59991;52.140;5.428;2023-10-31T02:43:19;9.00;;;7.78;;
72115;SDS011;59991;52.140;5.428;2023-10-31T02:43:50;10.88;;;8.32;;
72115;SDS011;59991;52.140;5.428;2023-10-31T02:44:22;17.27;;;10.50;;
72115;SDS011;59991;52.140;5.428;2023-10-31T02:44:53;15.02;;;8.93;;
72115;SDS011;59991;52.140;5.428;2023-10-31T02:45:25;9.80;;;8.80;;
72115;SDS011;59991;52.140;5.428;2023-10-31T02:45:57;14.60;;;8.82;;
72115;SDS011;59991;52.140;5.428;2023-10-31T02:47:18;12.73;;;7.80;;
72115;SDS011;59991;52.140;5.428;2023-10-31T02:47:50;15.65;;;8.77;;
72115;SDS011;59991;52.140;5.428;2023-10-31T02:48:22;10.52;;;8.52;;
72115;SDS011;59991;52.140;5.428;2023-10-31T02:48:55;10.43;;;8.15;;
72115;SDS011;59991;52.140;5.428;2023-10-31T02:49:26;19.00;;;8.50;;
72115;SDS011;59991;52.140;5.428;2023-10-31T02:49:57;8.73;;;7.80;;
72115;SDS011;59991;52.140;5.428;2023-10-31T02:50:29;9.80;;;7.55;;
72115;SDS011;59991;52.140;5.428;2023-10-31T02:51:00;11.63;;;7.68;;
72115;SDS011;59991;52.140;5.428;2023-10-31T02:51:32;9.15;;;7.18;;
72115;SDS011;59991;52.140;5.428;2023-10-31T02:52:03;11.97;;;7.30;;
72115;SDS011;59991;52.140;5.428;2023-10-31T02:52:35;10.15;;;8.10;;
72115;SDS011;59991;52.140;5.428;2023-10-31T02:53:07;9.57;;;8.32;;
72115;SDS011;59991;52.140;5.428;2023-10-31T02:53:39;9.13;;;8.20;;
72115;SDS011;59991;52.140;5.428;2023-10-31T02:54:10;9.73;;;7.20;;
72115;SDS011;59991;52.140;5.428;2023-10-31T02:54:42;8.75;;;7.13;;
72115;SDS011;59991;52.140;5.428;2023-10-31T02:55:13;10.50;;;7.60;;
72115;SDS011;59991;52.140;5.428;2023-10-31T02:55:45;9.32;;;6.95;;
72115;SDS011;59991;52.140;5.428;2023-10-31T02:56:16;8.15;;;7.30;;
72115;SDS011;59991;52.140;5.428;2023-10-31T02:56:48;8.55;;;7.68;;
72115;SDS011;59991;52.140;5.428;2023-10-31T02:57:19;11.87;;;7.47;;
72115;SDS011;59991;52.140;5.428;2023-10-31T02:57:51;10.75;;;7.13;;
72115;SDS011;59991;52.140;5.428;2023-10-31T02:58:22;10.10;;;7.85;;
72115;SDS011;59991;52.140;5.428;2023-10-31T02:58:54;10.15;;;7.10;;
72115;SDS011;59991;52.140;5.428;2023-10-31T02:59:25;11.93;;;6.30;;
72115;SDS011;59991;52.140;5.428;2023-10-31T02:59:57;11.80;;;6.70;;
72115;SDS011;59991;52.140;5.428;2023-10-31T03:00:28;12.23;;;7.10;;
72115;SDS011;59991;52.140;5.428;2023-10-31T03:01:00;11.40;;;7.13;;
72115;SDS011;59991;52.140;5.428;2023-10-31T03:01:31;9.65;;;6.95;;
72115;SDS011;59991;52.140;5.428;2023-10-31T03:02:03;9.48;;;6.32;;
72115;SDS011;59991;52.140;5.428;2023-10-31T03:02:35;7.67;;;5.90;;
72115;SDS011;59991;52.140;5.428;2023-10-31T03:03:06;8.30;;;5.53;;
72115;SDS011;59991;52.140;5.428;2023-10-31T03:03:38;11.00;;;5.85;;
72115;SDS011;59991;52.140;5.428;2023-10-31T03:04:10;7.30;;;5.63;;
72115;SDS011;59991;52.140;5.428;2023-10-31T03:04:41;12.70;;;6.25;;
72115;SDS011;59991;52.140;5.428;2023-10-31T03:05:13;9.55;;;5.88;;
72115;SDS011;59991;52.140;5.428;2023-10-31T03:05:44;8.48;;;5.43;;
72115;SDS011;59991;52.140;5.428;2023-10-31T03:06:15;9.27;;;5.20;;
72115;SDS011;59991;52.140;5.428;2023-10-31T03:06:47;8.90;;;5.45;;
72115;SDS011;59991;52.140;5.428;2023-10-31T03:07:18;6.82;;;4.57;;
72115;SDS011;59991;52.140;5.428;2023-10-31T03:07:50;5.23;;;4.00;;
72115;SDS011;59991;52.140;5.428;2023-10-31T03:08:21;5.55;;;4.32;;
72115;SDS011;59991;52.140;5.428;2023-10-31T03:08:53;5.00;;;4.45;;
72115;SDS011;59991;52.140;5.428;2023-10-31T03:09:24;6.68;;;4.40;;
72115;SDS011;59991;52.140;5.428;2023-10-31T03:09:56;8.73;;;4.88;;
72115;SDS011;59991;52.140;5.428;2023-10-31T03:10:27;7.20;;;4.40;;
72115;SDS011;59991;52.140;5.428;2023-10-31T03:10:59;6.88;;;4.30;;
72115;SDS011;59991;52.140;5.428;2023-10-31T03:11:30;5.38;;;4.78;;
72115;SDS011;59991;52.140;5.428;2023-10-31T03:12:03;7.72;;;4.13;;
72115;SDS011;59991;52.140;5.428;2023-10-31T03:12:35;6.78;;;4.30;;
72115;SDS011;59991;52.140;5.428;2023-10-31T03:13:06;6.23;;;3.67;;
72115;SDS011;59991;52.140;5.428;2023-10-31T03:13:38;8.38;;;4.05;;
72115;SDS011;59991;52.140;5.428;2023-10-31T03:14:09;7.85;;;4.47;;
72115;SDS011;59991;52.140;5.428;2023-10-31T03:14:41;6.05;;;4.22;;
72115;SDS011;59991;52.140;5.428;2023-10-31T03:15:13;8.45;;;4.13;;
72115;SDS011;59991;52.140;5.428;2023-10-31T03:15:45;7.78;;;4.40;;